Adelaide International Airport
YPAD : now visible

Airfield :











YOU CAN JOIN US ON...

 
LOGIN :

Register | Disclaimer

   EN    FR    IT 

 









Legend :    VFR   Marginal VFR   IFR   Intensive IFR   Very Intensive IFR
Visi :
Ceiling :
>= 8 km
>= 3000ft
5 to 8 km
1000 to 3000 ft
1500m to 5 km
500 to 1000 ft
800 to 1500m
200 to 500 ft
< 800m
< 200 ft
Symbols :   Thunderstorms  Fog  Heavy snow  Heavy precipitations  Wind > 20 kt






- Airport Elevation : 20 ft
- IATA code : ADL


YPAD - Adelaide International

CURRENT METAR :
  • 162230Z 03009KT 9999 -RA NSC 14/08 Q1017

EXPIRED METARs :
  • 162130Z 03009KT 9999 -RA NSC 13/08 Q1017
  • 162100Z 02009KT CAVOK 13/08 Q1017
  • 162030Z 04007KT 9999 -RA NSC 13/08 Q1017
  • 162000Z 03008KT CAVOK 13/07 Q1017

TAF TAF YPAD
Valid from the 16 at 21:00 until the 18 at 00:00 UTC


162001Z 1621/1800 03010KT CAVOK
FM170300 01015G25KT CAVOK
FM170900 01012KT CAVOK
FM171800 34010KT 9999 -RA SCT015 BKN030
YMMM FIR / Oceania



MET'MAP, your aeronautical weather chart ! - Copyright ORBIFLY December 2007 - Disclaimer

ORBIFLY MET'MAP TEAM :

Programming & Development : Alexandra Zaïnal
Original concept : Baudouin d'Aumeries
Technical & hardware support : Manuel Goepfert
Assistance : Marc-Olivier Méhu




SOURCES & CREDITS :

   NOAA       Earth
Advisory